Terminal Aerodrome Forecast
Issued by NWS Wilmington, OH

Current Version | Previous Version | Graphics & Text | Print | Product List | Glossary On
Versions: 1 2 3 4 5 6 7 8 9 10 11 12 13 14 15 16 17 18 19 20
636
FTUS41 KILN 262337
TAFDAY
TAF
KDAY 262337Z 2700/2724 25008KT P6SM SCT150
     FM270200 24005KT P6SM SKC
     FM271300 23013G22KT P6SM SKC
     FM271700 24015G25KT P6SM SCT050=

USA.gov is the U.S. government's official web portal to all federal, state and local government web resources and services.